Time;durP1;ratioP1;P1;durP2;ratioP2;P2;SDS_P1;SDS_P2;PMS_P1;PMS_P2;Temp;Humidity;BMP_temperature;BMP_pressure;BME280_temperature;BME280_humidity;BME280_pressure;Samples;Min_cycle;Max_cycle;Signal;HPM_P1;HPM_P2
2023/12/09 00:01:43;;;;;;;19.05;9.43;;;;;;;;;;5125882;28;20024;-60
2023/12/09 00:04:10;;;;;;;29.40;12.45;;;;;;;;;;5125930;28;20057;-59
2023/12/09 00:06:37;;;;;;;29.60;11.60;;;;;;;;;;5125758;28;20307;-58
2023/12/09 00:09:04;;;;;;;29.40;12.10;;;;;;;;;;5126420;28;20019;-61
2023/12/09 00:11:30;;;;;;;30.02;12.05;;;;;;;;;;5125683;28;20020;-59
2023/12/09 00:14:03;;;;;;;19.65;8.63;;;;;;;;;;5125762;28;20036;-58
2023/12/09 00:16:30;;;;;;;19.10;7.28;;;;;;;;;;5125911;28;20030;-62
2023/12/09 00:18:59;;;;;;;14.10;5.78;;;;;;;;;;5126264;28;20035;-58
2023/12/09 00:21:26;;;;;;;20.08;5.95;;;;;;;;;;5125557;28;20024;-58
2023/12/09 00:23:54;;;;;;;14.55;6.00;;;;;;;;;;5125619;28;20331;-57
2023/12/09 00:26:22;;;;;;;17.70;6.47;;;;;;;;;;5125333;28;20090;-55
2023/12/09 00:28:48;;;;;;;18.50;5.90;;;;;;;;;;5125773;28;20092;-58
2023/12/09 00:31:15;;;;;;;15.85;5.10;;;;;;;;;;5125406;28;20078;-58
2023/12/09 00:33:42;;;;;;;19.02;5.65;;;;;;;;;;5125636;28;20028;-57
2023/12/09 00:36:09;;;;;;;15.50;5.00;;;;;;;;;;5125389;28;20061;-59
2023/12/09 00:38:35;;;;;;;20.17;5.95;;;;;;;;;;5125694;28;20125;-56
2023/12/09 00:41:03;;;;;;;23.05;6.00;;;;;;;;;;5125529;28;20027;-58
2023/12/09 00:43:30;;;;;;;13.45;5.85;;;;;;;;;;5125311;28;20031;-58
2023/12/09 00:45:57;;;;;;;17.08;5.40;;;;;;;;;;5125013;28;20041;-58
2023/12/09 00:48:23;;;;;;;11.52;4.57;;;;;;;;;;5125461;28;20038;-58
2023/12/09 00:50:50;;;;;;;10.20;4.38;;;;;;;;;;5124734;28;20027;-59
2023/12/09 00:53:17;;;;;;;9.98;4.20;;;;;;;;;;5125325;28;20020;-60
2023/12/09 00:55:44;;;;;;;24.90;4.15;;;;;;;;;;5122275;28;20195;-47
2023/12/09 00:58:10;;;;;;;24.25;5.90;;;;;;;;;;5118308;28;20039;-47
2023/12/09 01:00:39;;;;;;;24.38;7.82;;;;;;;;;;5114117;28;20083;-52
2023/12/09 01:03:07;;;;;;;9.30;5.95;;;;;;;;;;5108123;28;20047;-56
2023/12/09 01:05:34;;;;;;;9.88;5.30;;;;;;;;;;5109173;28;20054;-50
2023/12/09 01:08:01;;;;;;;13.00;5.45;;;;;;;;;;5106935;28;20019;-64
2023/12/09 01:10:27;;;;;;;13.65;5.55;;;;;;;;;;5112943;28;20242;-54
2023/12/09 01:12:54;;;;;;;15.13;5.10;;;;;;;;;;5106349;28;20028;-54
2023/12/09 01:15:22;;;;;;;11.20;4.78;;;;;;;;;;5112935;28;20122;-51
2023/12/09 01:17:49;;;;;;;27.38;4.90;;;;;;;;;;5144773;27;20310;-65
2023/12/09 01:20:15;;;;;;;11.88;4.18;;;;;;;;;;5135317;28;20039;-57
2023/12/09 01:22:43;;;;;;;17.83;4.90;;;;;;;;;;5115270;28;20038;-65
2023/12/09 01:25:12;;;;;;;13.82;5.30;;;;;;;;;;5124348;28;20089;-54
2023/12/09 01:27:39;;;;;;;14.80;4.68;;;;;;;;;;5124713;28;20055;-64
2023/12/09 01:30:06;;;;;;;13.10;4.88;;;;;;;;;;5113033;28;20312;-64
2023/12/09 01:32:32;;;;;;;16.67;6.05;;;;;;;;;;5104163;28;20312;-48
2023/12/09 01:34:59;;;;;;;20.80;5.32;;;;;;;;;;5103895;28;20028;-58
2023/12/09 01:37:26;;;;;;;17.08;5.40;;;;;;;;;;5103972;28;20012;-48
2023/12/09 01:39:52;;;;;;;16.08;5.50;;;;;;;;;;5107381;28;20018;-62
2023/12/09 01:42:19;;;;;;;18.05;5.68;;;;;;;;;;5117578;28;20035;-66
2023/12/09 01:44:46;;;;;;;19.75;5.95;;;;;;;;;;5117482;28;20024;-55
2023/12/09 01:47:13;;;;;;;13.32;5.82;;;;;;;;;;5122507;28;20028;-57
2023/12/09 01:49:39;;;;;;;17.02;7.65;;;;;;;;;;5121006;28;20040;-57
2023/12/09 01:52:06;;;;;;;16.00;7.65;;;;;;;;;;5106388;28;20020;-46
2023/12/09 01:54:33;;;;;;;20.30;6.57;;;;;;;;;;5112693;28;20063;-56
2023/12/09 01:57:00;;;;;;;27.65;6.85;;;;;;;;;;5115061;28;20027;-59
2023/12/09 01:59:27;;;;;;;20.67;6.80;;;;;;;;;;5108598;28;20083;-46
2023/12/09 02:01:54;;;;;;;13.15;7.63;;;;;;;;;;5112808;28;20031;-64
2023/12/09 02:04:20;;;;;;;18.50;7.18;;;;;;;;;;5105636;28;20382;-57
2023/12/09 02:06:47;;;;;;;17.65;6.85;;;;;;;;;;5112726;28;20092;-51
2023/12/09 02:09:18;;;;;;;12.60;6.45;;;;;;;;;;5103721;28;20030;-51
2023/12/09 02:12:03;;;;;;;17.30;8.05;;;;;;;;;;5103555;28;20232;-44
2023/12/09 02:14:51;;;;;;;12.55;6.68;;;;;;;;;;5103683;28;20036;-47
2023/12/09 02:17:21;;;;;;;26.58;19.20;;;;;;;;;;5105909;28;20036;-46
2023/12/09 02:19:48;;;;;;;24.73;14.88;;;;;;;;;;5107353;28;20283;-54
2023/12/09 02:22:15;;;;;;;21.25;8.15;;;;;;;;;;5118378;28;20261;-50
2023/12/09 02:24:42;;;;;;;22.60;9.10;;;;;;;;;;5119248;27;20070;-55
2023/12/09 02:27:19;;;;;;;33.15;9.48;;;;;;;;;;5111890;28;20054;-48
2023/12/09 02:29:55;;;;;;;35.40;11.60;;;;;;;;;;5107080;28;20324;-48
2023/12/09 02:32:24;;;;;;;77.63;14.25;;;;;;;;;;5107206;28;20231;-55
2023/12/09 02:34:52;;;;;;;32.75;10.77;;;;;;;;;;5107210;28;20339;-62
2023/12/09 02:37:21;;;;;;;30.83;9.02;;;;;;;;;;5107115;28;20050;-48
2023/12/09 02:39:49;;;;;;;24.05;8.45;;;;;;;;;;5112740;28;20083;-56
2023/12/09 02:42:17;;;;;;;21.33;7.13;;;;;;;;;;5127245;28;20064;-45
2023/12/09 02:44:44;;;;;;;16.95;7.43;;;;;;;;;;5127337;28;20026;-55
2023/12/09 02:47:13;;;;;;;20.00;7.15;;;;;;;;;;5127356;28;20020;-56
2023/12/09 02:49:39;;;;;;;21.40;7.40;;;;;;;;;;5127167;28;20073;-61
2023/12/09 02:52:07;;;;;;;28.63;7.05;;;;;;;;;;5127154;28;20020;-59
2023/12/09 02:54:33;;;;;;;29.40;6.78;;;;;;;;;;5127120;28;20211;-57
2023/12/09 02:57:00;;;;;;;26.65;8.25;;;;;;;;;;5127132;28;20342;-56
2023/12/09 02:59:28;;;;;;;23.10;9.95;;;;;;;;;;5126976;28;20035;-52
2023/12/09 03:01:55;;;;;;;52.90;24.50;;;;;;;;;;5125792;28;20229;-50
2023/12/09 03:04:22;;;;;;;54.60;29.70;;;;;;;;;;5126846;28;20030;-50
2023/12/09 03:06:49;;;;;;;37.60;23.73;;;;;;;;;;5126499;28;20249;-50
2023/12/09 03:09:15;;;;;;;31.63;21.10;;;;;;;;;;5126793;28;20030;-50
2023/12/09 03:11:42;;;;;;;18.85;9.88;;;;;;;;;;5126606;28;20022;-54
2023/12/09 03:14:09;;;;;;;10.35;6.30;;;;;;;;;;5124589;27;20077;-50
2023/12/09 03:16:39;;;;;;;10.77;5.65;;;;;;;;;;5106269;28;20091;-48
2023/12/09 03:19:05;;;;;;;13.00;6.90;;;;;;;;;;5106652;28;20032;-51
2023/12/09 03:21:32;;;;;;;10.55;5.15;;;;;;;;;;5108532;28;20016;-54
2023/12/09 03:23:59;;;;;;;5.60;4.03;;;;;;;;;;5122002;28;20035;-52
2023/12/09 03:26:26;;;;;;;22.27;7.18;;;;;;;;;;5125790;28;20092;-54
2023/12/09 03:28:53;;;;;;;28.75;14.32;;;;;;;;;;5123604;28;20079;-55
2023/12/09 03:31:20;;;;;;;38.33;22.70;;;;;;;;;;5121179;28;20016;-47
2023/12/09 03:33:46;;;;;;;40.30;25.30;;;;;;;;;;5126577;28;20075;-46
2023/12/09 03:36:14;;;;;;;35.90;21.58;;;;;;;;;;5125839;28;20015;-47
2023/12/09 03:38:41;;;;;;;21.30;11.25;;;;;;;;;;5126349;28;20055;-47
2023/12/09 03:41:07;;;;;;;18.13;8.38;;;;;;;;;;5124479;28;20028;-49
2023/12/09 03:43:34;;;;;;;13.98;6.32;;;;;;;;;;5117350;28;20035;-48
2023/12/09 03:46:01;;;;;;;14.73;6.38;;;;;;;;;;5106104;28;20024;-50
2023/12/09 03:48:28;;;;;;;15.02;6.80;;;;;;;;;;5118859;27;20031;-55
2023/12/09 03:50:55;;;;;;;10.25;5.45;;;;;;;;;;5110205;28;20164;-52
2023/12/09 03:53:23;;;;;;;10.80;4.95;;;;;;;;;;5105729;28;20199;-55
2023/12/09 03:55:50;;;;;;;11.35;5.68;;;;;;;;;;5105224;28;20036;-48
2023/12/09 03:58:22;;;;;;;13.65;5.60;;;;;;;;;;5105619;28;20020;-55
2023/12/09 04:00:49;;;;;;;8.47;5.13;;;;;;;;;;5105324;28;20134;-47
2023/12/09 04:03:16;;;;;;;9.13;4.93;;;;;;;;;;5105631;28;20403;-49
2023/12/09 04:05:43;;;;;;;10.10;4.15;;;;;;;;;;5105184;28;20030;-53
2023/12/09 04:08:09;;;;;;;8.18;4.60;;;;;;;;;;5105633;28;20138;-49
2023/12/09 04:10:36;;;;;;;7.70;4.35;;;;;;;;;;5104976;28;20070;-55
2023/12/09 04:13:03;;;;;;;6.65;3.95;;;;;;;;;;5104924;28;20065;-55
2023/12/09 04:15:29;;;;;;;7.78;4.20;;;;;;;;;;5105212;28;20028;-51
2023/12/09 04:17:56;;;;;;;7.65;3.60;;;;;;;;;;5105262;28;20036;-55
2023/12/09 04:20:23;;;;;;;6.75;3.40;;;;;;;;;;5112140;28;20244;-55
2023/12/09 04:22:51;;;;;;;8.70;3.90;;;;;;;;;;5110703;28;20062;-56
2023/12/09 04:25:17;;;;;;;7.10;4.00;;;;;;;;;;5104826;28;20099;-57
2023/12/09 04:27:45;;;;;;;5.22;4.10;;;;;;;;;;5115127;28;20117;-54
2023/12/09 04:30:12;;;;;;;7.07;4.40;;;;;;;;;;5116303;28;20263;-53
2023/12/09 04:32:38;;;;;;;6.65;3.83;;;;;;;;;;5111151;28;20067;-50
2023/12/09 04:35:06;;;;;;;10.25;4.50;;;;;;;;;;5111102;28;20228;-52
2023/12/09 04:37:32;;;;;;;15.43;5.75;;;;;;;;;;5116624;28;20020;-52
2023/12/09 04:39:59;;;;;;;21.40;7.38;;;;;;;;;;5124444;28;20032;-52
2023/12/09 04:42:26;;;;;;;20.75;8.50;;;;;;;;;;5124826;28;20019;-56
2023/12/09 04:44:52;;;;;;;22.98;7.60;;;;;;;;;;5124176;28;20338;-52
2023/12/09 04:47:19;;;;;;;21.10;7.80;;;;;;;;;;5124999;28;20031;-54
2023/12/09 04:49:46;;;;;;;23.60;8.38;;;;;;;;;;5124687;28;20019;-54
2023/12/09 04:52:13;;;;;;;22.95;7.70;;;;;;;;;;5125261;28;20023;-52
2023/12/09 04:54:39;;;;;;;17.58;7.25;;;;;;;;;;5118593;27;20034;-53
2023/12/09 04:57:06;;;;;;;17.75;7.22;;;;;;;;;;5110603;28;20319;-53
2023/12/09 04:59:32;;;;;;;14.93;6.68;;;;;;;;;;5109973;28;20028;-55
2023/12/09 05:01:59;;;;;;;12.48;5.85;;;;;;;;;;5121625;28;20307;-54
2023/12/09 05:04:26;;;;;;;18.83;5.55;;;;;;;;;;5124470;28;20031;-56
2023/12/09 05:06:52;;;;;;;13.32;5.75;;;;;;;;;;5124461;28;20043;-52
2023/12/09 05:09:20;;;;;;;12.82;5.00;;;;;;;;;;5124027;28;20335;-53
2023/12/09 05:11:47;;;;;;;9.93;4.50;;;;;;;;;;5124320;28;20019;-51
2023/12/09 05:14:13;;;;;;;10.27;4.35;;;;;;;;;;5124595;28;20338;-52
2023/12/09 05:16:40;;;;;;;8.48;4.18;;;;;;;;;;5124593;28;20039;-51
2023/12/09 05:19:07;;;;;;;7.97;3.70;;;;;;;;;;5125027;28;20015;-56
2023/12/09 05:21:34;;;;;;;5.15;3.58;;;;;;;;;;5124556;28;20040;-52
2023/12/09 05:24:00;;;;;;;5.95;3.55;;;;;;;;;;5124263;28;20047;-53
2023/12/09 05:26:31;;;;;;;9.52;4.47;;;;;;;;;;5124442;28;20238;-54
2023/12/09 05:28:57;;;;;;;9.65;5.30;;;;;;;;;;5124891;28;20035;-52
2023/12/09 05:31:24;;;;;;;10.00;5.05;;;;;;;;;;5124386;28;20038;-52
2023/12/09 05:33:51;;;;;;;10.02;5.05;;;;;;;;;;5124678;28;20026;-54
2023/12/09 05:36:18;;;;;;;12.10;5.20;;;;;;;;;;5124270;28;20031;-53
2023/12/09 05:38:45;;;;;;;10.70;5.03;;;;;;;;;;5124750;28;20034;-55
2023/12/09 05:41:12;;;;;;;8.43;5.00;;;;;;;;;;5124203;28;20020;-55
2023/12/09 05:43:39;;;;;;;7.63;4.70;;;;;;;;;;5124473;28;20031;-55
2023/12/09 05:46:06;;;;;;;7.53;4.47;;;;;;;;;;5124574;28;20042;-54
2023/12/09 05:48:34;;;;;;;8.02;4.68;;;;;;;;;;5124470;28;20012;-56
2023/12/09 05:51:01;;;;;;;6.75;3.85;;;;;;;;;;5126537;28;20023;-57
2023/12/09 05:53:28;;;;;;;5.82;3.63;;;;;;;;;;5128189;28;20323;-53
2023/12/09 05:55:55;;;;;;;6.90;3.45;;;;;;;;;;5128188;28;20046;-54
2023/12/09 05:58:21;;;;;;;6.38;3.42;;;;;;;;;;5128085;28;20028;-52
2023/12/09 06:00:48;;;;;;;5.78;3.20;;;;;;;;;;5128282;28;20077;-54
2023/12/09 06:03:15;;;;;;;5.85;3.58;;;;;;;;;;5128266;28;20064;-54
2023/12/09 06:05:42;;;;;;;4.05;3.10;;;;;;;;;;5127877;28;20030;-56
2023/12/09 06:08:08;;;;;;;5.40;3.13;;;;;;;;;;5128183;28;20019;-54
2023/12/09 06:10:35;;;;;;;5.35;3.28;;;;;;;;;;5127951;28;20024;-57
2023/12/09 06:13:03;;;;;;;6.10;2.60;;;;;;;;;;5127586;28;20047;-55
2023/12/09 06:15:29;;;;;;;5.63;2.65;;;;;;;;;;5127796;28;20028;-58
2023/12/09 06:17:56;;;;;;;5.57;2.42;;;;;;;;;;5128250;28;20064;-54
2023/12/09 06:20:23;;;;;;;5.65;2.38;;;;;;;;;;5127720;28;20035;-57
2023/12/09 06:22:49;;;;;;;4.07;2.30;;;;;;;;;;5127864;28;20043;-54
2023/12/09 06:25:16;;;;;;;3.65;1.92;;;;;;;;;;5128028;28;20023;-55
2023/12/09 06:27:43;;;;;;;2.95;1.70;;;;;;;;;;5127928;28;20027;-54
2023/12/09 06:30:10;;;;;;;3.70;2.10;;;;;;;;;;5127567;28;20028;-55
2023/12/09 06:32:37;;;;;;;5.93;2.60;;;;;;;;;;5127978;28;20015;-53
2023/12/09 06:35:04;;;;;;;5.38;2.50;;;;;;;;;;5127543;28;20077;-54
2023/12/09 06:37:30;;;;;;;5.15;2.35;;;;;;;;;;5127517;28;20024;-53
2023/12/09 06:39:57;;;;;;;4.65;2.33;;;;;;;;;;5127640;28;20051;-58
2023/12/09 06:42:24;;;;;;;4.07;2.38;;;;;;;;;;5127222;28;20023;-55
2023/12/09 06:44:50;;;;;;;4.70;2.70;;;;;;;;;;5127274;28;20035;-53
2023/12/09 06:47:17;;;;;;;5.80;2.60;;;;;;;;;;5127501;28;20011;-52
2023/12/09 06:49:44;;;;;;;7.30;2.80;;;;;;;;;;5127078;28;20030;-55
2023/12/09 06:52:11;;;;;;;6.47;2.88;;;;;;;;;;5127200;28;20027;-54
2023/12/09 06:54:37;;;;;;;6.78;2.90;;;;;;;;;;5127021;28;20027;-54
2023/12/09 06:57:04;;;;;;;5.60;2.28;;;;;;;;;;5126838;28;20030;-53
2023/12/09 06:59:31;;;;;;;4.57;2.28;;;;;;;;;;5127054;28;20038;-54
2023/12/09 07:01:58;;;;;;;3.85;1.90;;;;;;;;;;5123031;28;20307;-55
2023/12/09 07:04:24;;;;;;;3.97;1.73;;;;;;;;;;5117831;28;20092;-55
2023/12/09 07:06:51;;;;;;;4.43;2.22;;;;;;;;;;5126758;28;20311;-55
2023/12/09 07:09:19;;;;;;;2.95;1.70;;;;;;;;;;5127005;28;20023;-56
2023/12/09 07:11:46;;;;;;;2.45;1.63;;;;;;;;;;5126830;28;20023;-53
2023/12/09 07:14:15;;;;;;;3.08;1.63;;;;;;;;;;5126898;28;20353;-54
2023/12/09 07:16:41;;;;;;;2.63;1.40;;;;;;;;;;5127031;28;20027;-57
2023/12/09 07:19:08;;;;;;;3.80;1.52;;;;;;;;;;5127126;28;20053;-54
2023/12/09 07:21:35;;;;;;;1.63;1.38;;;;;;;;;;5126564;28;20204;-56
2023/12/09 07:24:01;;;;;;;2.92;1.27;;;;;;;;;;5126346;28;20036;-56
2023/12/09 07:26:28;;;;;;;1.50;1.20;;;;;;;;;;5126396;28;20049;-54
2023/12/09 07:28:55;;;;;;;1.98;1.20;;;;;;;;;;5126871;28;20035;-54
2023/12/09 07:31:22;;;;;;;1.95;0.90;;;;;;;;;;5126437;28;20016;-57
2023/12/09 07:33:49;;;;;;;1.80;1.15;;;;;;;;;;5126606;28;20028;-59
2023/12/09 07:36:17;;;;;;;2.00;1.13;;;;;;;;;;5126203;28;20058;-57
2023/12/09 07:38:44;;;;;;;1.60;0.90;;;;;;;;;;5126611;28;20064;-55
2023/12/09 07:41:10;;;;;;;1.33;1.08;;;;;;;;;;5126170;28;20030;-57
2023/12/09 07:43:37;;;;;;;2.13;1.30;;;;;;;;;;5126245;28;20085;-55
2023/12/09 07:46:03;;;;;;;7.32;2.58;;;;;;;;;;5126558;28;20173;-57
2023/12/09 07:48:31;;;;;;;7.82;2.38;;;;;;;;;;5126441;28;20181;-56
2023/12/09 07:50:57;;;;;;;5.57;2.50;;;;;;;;;;5125851;28;20034;-56
2023/12/09 07:53:24;;;;;;;6.63;2.47;;;;;;;;;;5126197;28;20043;-55
2023/12/09 07:55:51;;;;;;;5.95;2.38;;;;;;;;;;5125889;28;20315;-58
2023/12/09 07:58:17;;;;;;;5.22;2.33;;;;;;;;;;5126126;28;20043;-56
2023/12/09 08:00:44;;;;;;;7.60;2.38;;;;;;;;;;5125864;28;20020;-53
2023/12/09 08:03:11;;;;;;;4.88;2.00;;;;;;;;;;5125926;28;20027;-53
2023/12/09 08:05:40;;;;;;;6.22;1.75;;;;;;;;;;5125572;28;20042;-53
2023/12/09 08:08:06;;;;;;;4.22;1.80;;;;;;;;;;5126092;28;20364;-54
2023/12/09 08:10:34;;;;;;;4.70;1.70;;;;;;;;;;5125762;28;20065;-54
2023/12/09 08:13:03;;;;;;;3.35;1.30;;;;;;;;;;5125532;28;20035;-53
2023/12/09 08:15:30;;;;;;;3.45;1.05;;;;;;;;;;5124747;28;20081;-53
2023/12/09 08:17:57;;;;;;;3.35;1.25;;;;;;;;;;5125549;28;20091;-55
2023/12/09 08:20:23;;;;;;;4.20;1.35;;;;;;;;;;5125218;28;20259;-55
2023/12/09 08:22:50;;;;;;;2.85;1.10;;;;;;;;;;5125274;28;20129;-54
2023/12/09 08:25:18;;;;;;;2.75;1.10;;;;;;;;;;5125399;28;20042;-55
2023/12/09 08:27:44;;;;;;;2.53;1.00;;;;;;;;;;5125759;28;20091;-56
2023/12/09 08:30:12;;;;;;;2.65;1.10;;;;;;;;;;5125500;28;20087;-55
2023/12/09 08:32:41;;;;;;;1.83;1.08;;;;;;;;;;5125614;28;20026;-52
2023/12/09 08:35:08;;;;;;;2.58;1.20;;;;;;;;;;5125687;28;20308;-56
2023/12/09 08:37:35;;;;;;;2.25;1.05;;;;;;;;;;5125259;28;20011;-57
2023/12/09 08:40:12;;;;;;;3.50;1.02;;;;;;;;;;5125540;28;20020;-53
2023/12/09 08:42:42;;;;;;;2.58;1.17;;;;;;;;;;5125234;28;20020;-53
2023/12/09 08:45:13;;;;;;;3.17;0.98;;;;;;;;;;5125010;28;20062;-56
2023/12/09 08:47:40;;;;;;;1.85;1.05;;;;;;;;;;5124974;28;20019;-58
2023/12/09 08:50:08;;;;;;;1.55;0.80;;;;;;;;;;5124915;28;20015;-55
2023/12/09 08:52:35;;;;;;;2.53;0.80;;;;;;;;;;5125150;28;20019;-55
2023/12/09 08:55:02;;;;;;;1.90;0.90;;;;;;;;;;5124709;28;20043;-53
2023/12/09 08:57:28;;;;;;;1.85;1.00;;;;;;;;;;5125345;28;20027;-53
2023/12/09 08:59:55;;;;;;;1.38;1.05;;;;;;;;;;5124800;28;20027;-54
2023/12/09 09:02:22;;;;;;;1.02;0.93;;;;;;;;;;5124646;28;20031;-53
2023/12/09 09:04:49;;;;;;;1.60;1.00;;;;;;;;;;5113974;28;20032;-54
2023/12/09 09:07:16;;;;;;;1.70;1.10;;;;;;;;;;5104348;28;20031;-59
2023/12/09 09:09:43;;;;;;;2.45;1.30;;;;;;;;;;5104154;28;20024;-57
2023/12/09 09:12:09;;;;;;;1.17;1.05;;;;;;;;;;5104327;28;20222;-57
2023/12/09 09:14:36;;;;;;;1.70;0.90;;;;;;;;;;5104586;28;20028;-58
2023/12/09 09:17:04;;;;;;;1.58;1.17;;;;;;;;;;5104066;28;20038;-59
2023/12/09 09:19:30;;;;;;;3.35;1.10;;;;;;;;;;5104397;28;20051;-54
2023/12/09 09:21:57;;;;;;;2.15;1.08;;;;;;;;;;5104089;28;20319;-56
2023/12/09 09:24:24;;;;;;;1.90;1.00;;;;;;;;;;5103872;28;20052;-53
2023/12/09 09:26:51;;;;;;;2.63;1.35;;;;;;;;;;5103876;28;20016;-54
2023/12/09 09:29:18;;;;;;;4.10;1.30;;;;;;;;;;5104278;28;20366;-55
2023/12/09 09:31:44;;;;;;;1.27;0.98;;;;;;;;;;5104004;28;20024;-55
2023/12/09 09:34:11;;;;;;;2.28;1.20;;;;;;;;;;5104503;28;20028;-53
2023/12/09 09:36:38;;;;;;;2.80;0.90;;;;;;;;;;5104289;28;20268;-54
2023/12/09 09:39:06;;;;;;;1.05;0.85;;;;;;;;;;5115202;28;20081;-53
2023/12/09 09:41:38;;;;;;;1.10;0.90;;;;;;;;;;5124451;28;20061;-53
2023/12/09 09:44:08;;;;;;;2.75;1.00;;;;;;;;;;5118797;28;20032;-55
2023/12/09 09:46:35;;;;;;;2.13;1.00;;;;;;;;;;5104237;28;20043;-54
2023/12/09 09:49:04;;;;;;;2.15;0.90;;;;;;;;;;5104724;28;20016;-57
2023/12/09 09:51:31;;;;;;;3.92;1.25;;;;;;;;;;5115012;28;20023;-53
2023/12/09 09:54:01;;;;;;;3.30;1.38;;;;;;;;;;5119816;28;20173;-53
2023/12/09 09:56:28;;;;;;;4.95;1.52;;;;;;;;;;5103984;28;20335;-52
2023/12/09 09:58:55;;;;;;;2.88;1.20;;;;;;;;;;5104664;28;20087;-52
2023/12/09 10:01:23;;;;;;;2.45;1.20;;;;;;;;;;5103573;28;20308;-56
2023/12/09 10:03:49;;;;;;;5.28;1.20;;;;;;;;;;5104486;28;20016;-53
2023/12/09 10:06:16;;;;;;;2.70;1.15;;;;;;;;;;5103613;28;20255;-52
2023/12/09 10:08:43;;;;;;;3.20;1.00;;;;;;;;;;5104435;28;20020;-54
2023/12/09 10:11:10;;;;;;;4.30;1.00;;;;;;;;;;5103790;28;20016;-56
2023/12/09 10:13:37;;;;;;;2.05;0.90;;;;;;;;;;5103494;28;20024;-55
2023/12/09 10:16:04;;;;;;;2.92;1.00;;;;;;;;;;5103582;28;20036;-53
2023/12/09 10:18:31;;;;;;;2.35;1.05;;;;;;;;;;5103888;28;20023;-53
2023/12/09 10:20:57;;;;;;;3.58;1.20;;;;;;;;;;5103614;28;20028;-56
2023/12/09 10:23:24;;;;;;;5.00;1.70;;;;;;;;;;5106480;28;20063;-58
2023/12/09 10:25:51;;;;;;;3.25;1.27;;;;;;;;;;5109217;28;20035;-60
2023/12/09 10:28:17;;;;;;;2.95;1.20;;;;;;;;;;5103747;28;20034;-59
2023/12/09 10:30:44;;;;;;;2.28;1.38;;;;;;;;;;5103471;28;20024;-55
2023/12/09 10:33:11;;;;;;;4.85;1.20;;;;;;;;;;5104221;28;20091;-52
2023/12/09 10:35:38;;;;;;;1.50;0.90;;;;;;;;;;5103606;28;20031;-53
2023/12/09 10:38:05;;;;;;;2.13;0.90;;;;;;;;;;5105571;28;20315;-53
2023/12/09 10:40:33;;;;;;;5.07;0.88;;;;;;;;;;5107261;28;20052;-58
2023/12/09 10:42:59;;;;;;;3.03;0.98;;;;;;;;;;5107568;28;20046;-55
2023/12/09 10:45:26;;;;;;;2.83;0.88;;;;;;;;;;5106973;28;20088;-55
2023/12/09 10:47:53;;;;;;;4.00;1.00;;;;;;;;;;5107378;28;20050;-53
2023/12/09 10:50:20;;;;;;;1.33;0.70;;;;;;;;;;5107119;28;20027;-58
2023/12/09 10:52:47;;;;;;;3.33;0.88;;;;;;;;;;5106918;28;20296;-54
2023/12/09 10:55:14;;;;;;;3.92;1.10;;;;;;;;;;5106861;28;20028;-56
2023/12/09 10:57:41;;;;;;;8.13;1.13;;;;;;;;;;5106787;28;20020;-52
2023/12/09 11:00:14;;;;;;;2.95;1.10;;;;;;;;;;5106811;28;20060;-53
2023/12/09 11:02:42;;;;;;;3.28;1.10;;;;;;;;;;5106737;28;20057;-56
2023/12/09 11:05:13;;;;;;;3.38;1.20;;;;;;;;;;5107142;28;20101;-53
2023/12/09 11:07:40;;;;;;;5.35;1.15;;;;;;;;;;5106707;28;20044;-55
2023/12/09 11:10:08;;;;;;;4.30;1.30;;;;;;;;;;5106534;28;20028;-54
2023/12/09 11:12:35;;;;;;;4.35;1.30;;;;;;;;;;5106605;28;20020;-58
2023/12/09 11:15:15;;;;;;;5.70;1.40;;;;;;;;;;5106511;28;20032;-56
2023/12/09 11:17:45;;;;;;;5.75;1.23;;;;;;;;;;5106487;28;20368;-54
2023/12/09 11:20:15;;;;;;;4.47;1.40;;;;;;;;;;5106410;28;20098;-57
2023/12/09 11:22:43;;;;;;;5.30;1.70;;;;;;;;;;5106116;28;20232;-54
2023/12/09 11:25:12;;;;;;;2.88;1.35;;;;;;;;;;5106153;28;20032;-58
2023/12/09 11:27:39;;;;;;;3.28;1.60;;;;;;;;;;5106157;28;20196;-53
2023/12/09 11:30:06;;;;;;;11.25;2.33;;;;;;;;;;5106285;28;20043;-53
2023/12/09 11:32:33;;;;;;;5.90;1.67;;;;;;;;;;5106629;28;20165;-53
2023/12/09 11:34:59;;;;;;;11.20;2.15;;;;;;;;;;5105838;28;20036;-55
2023/12/09 11:37:28;;;;;;;6.18;2.00;;;;;;;;;;5105972;28;20304;-54
2023/12/09 11:39:58;;;;;;;14.00;2.30;;;;;;;;;;5105941;28;20032;-53
2023/12/09 11:42:25;;;;;;;17.65;2.20;;;;;;;;;;5106081;28;20203;-53
2023/12/09 11:44:52;;;;;;;9.68;1.70;;;;;;;;;;5113157;28;20046;-54
2023/12/09 11:47:19;;;;;;;10.18;1.83;;;;;;;;;;5115014;28;20064;-53
2023/12/09 11:49:47;;;;;;;7.70;1.80;;;;;;;;;;5112182;28;20024;-54
2023/12/09 11:52:14;;;;;;;7.03;1.60;;;;;;;;;;5113747;28;20066;-54
2023/12/09 11:54:41;;;;;;;5.90;2.28;;;;;;;;;;5106162;28;20031;-58
2023/12/09 11:57:08;;;;;;;4.63;1.70;;;;;;;;;;5105308;28;20024;-56
2023/12/09 11:59:36;;;;;;;4.30;1.92;;;;;;;;;;5110695;28;20026;-56
2023/12/09 12:02:03;;;;;;;2.33;1.60;;;;;;;;;;5116811;28;20083;-54
2023/12/09 12:04:33;;;;;;;3.35;1.70;;;;;;;;;;5124626;28;20036;-52
2023/12/09 12:07:00;;;;;;;2.17;1.98;;;;;;;;;;5125705;28;20015;-50
2023/12/09 12:09:27;;;;;;;2.88;1.75;;;;;;;;;;5125982;28;20027;-51
2023/12/09 12:11:53;;;;;;;2.35;1.45;;;;;;;;;;5125671;28;20028;-57
2023/12/09 12:14:20;;;;;;;3.28;1.42;;;;;;;;;;5125361;28;20023;-56
2023/12/09 12:16:49;;;;;;;2.58;1.83;;;;;;;;;;5125307;28;20016;-56
2023/12/09 12:19:15;;;;;;;3.63;1.73;;;;;;;;;;5123474;28;20042;-54
2023/12/09 12:21:42;;;;;;;2.53;1.70;;;;;;;;;;5124570;28;20016;-56
2023/12/09 12:24:10;;;;;;;4.07;1.65;;;;;;;;;;5115734;28;20040;-54
2023/12/09 12:26:36;;;;;;;5.25;1.50;;;;;;;;;;5105131;28;20065;-54
2023/12/09 12:29:04;;;;;;;2.38;1.42;;;;;;;;;;5105626;28;20016;-52
2023/12/09 12:31:31;;;;;;;4.05;1.60;;;;;;;;;;5105462;28;20046;-54
2023/12/09 12:33:58;;;;;;;2.58;1.40;;;;;;;;;;5105265;28;20028;-60
2023/12/09 12:36:27;;;;;;;1.23;1.10;;;;;;;;;;5104802;28;20051;-54
2023/12/09 12:38:54;;;;;;;1.45;1.20;;;;;;;;;;5112763;28;20098;-53
2023/12/09 12:41:21;;;;;;;4.10;1.20;;;;;;;;;;5125146;28;20050;-56
2023/12/09 12:43:48;;;;;;;1.50;1.15;;;;;;;;;;5125461;28;20030;-55
2023/12/09 12:46:19;;;;;;;1.60;1.10;;;;;;;;;;5125221;28;20042;-54
2023/12/09 12:48:46;;;;;;;2.25;1.20;;;;;;;;;;5125278;28;20019;-55
2023/12/09 12:51:13;;;;;;;1.92;1.20;;;;;;;;;;5125144;28;20195;-53
2023/12/09 12:53:39;;;;;;;2.45;1.10;;;;;;;;;;5125340;28;20086;-57
2023/12/09 12:56:06;;;;;;;2.22;1.25;;;;;;;;;;5124611;28;20034;-53
2023/12/09 12:58:34;;;;;;;1.20;1.10;;;;;;;;;;5125369;28;20031;-58
2023/12/09 13:01:01;;;;;;;1.98;1.25;;;;;;;;;;5124355;28;20031;-58
2023/12/09 13:03:28;;;;;;;2.70;1.35;;;;;;;;;;5125141;28;20171;-57
2023/12/09 13:05:55;;;;;;;2.95;1.20;;;;;;;;;;5124707;28;20016;-54
2023/12/09 13:08:26;;;;;;;2.80;1.50;;;;;;;;;;5125164;28;20016;-55
2023/12/09 13:10:53;;;;;;;2.20;1.52;;;;;;;;;;5124526;28;20061;-57
2023/12/09 13:13:21;;;;;;;2.90;1.35;;;;;;;;;;5119287;28;20024;-51
2023/12/09 13:15:48;;;;;;;2.58;1.40;;;;;;;;;;5104237;28;20251;-53
2023/12/09 13:18:14;;;;;;;2.75;1.48;;;;;;;;;;5104409;28;20195;-55
2023/12/09 13:20:46;;;;;;;2.28;1.42;;;;;;;;;;5104378;28;20024;-55
2023/12/09 13:23:13;;;;;;;2.20;1.55;;;;;;;;;;5108562;28;20027;-51
2023/12/09 13:25:40;;;;;;;3.10;1.50;;;;;;;;;;5124709;28;20270;-53
2023/12/09 13:28:10;;;;;;;3.33;1.63;;;;;;;;;;5124890;28;20061;-52
2023/12/09 13:30:38;;;;;;;2.05;1.70;;;;;;;;;;5109974;28;20095;-55
2023/12/09 13:33:06;;;;;;;2.90;1.30;;;;;;;;;;5104167;28;20038;-50
2023/12/09 13:35:33;;;;;;;5.03;1.73;;;;;;;;;;5104079;28;20312;-50
2023/12/09 13:38:01;;;;;;;5.28;1.90;;;;;;;;;;5104151;28;20074;-57
2023/12/09 13:40:27;;;;;;;3.03;1.80;;;;;;;;;;5104036;28;20036;-50
2023/12/09 13:42:54;;;;;;;4.57;1.70;;;;;;;;;;5111361;28;20038;-51
2023/12/09 13:45:21;;;;;;;5.30;2.60;;;;;;;;;;5124471;28;20024;-53
2023/12/09 13:47:48;;;;;;;3.65;2.10;;;;;;;;;;5123442;28;20088;-53
2023/12/09 13:50:15;;;;;;;2.97;2.30;;;;;;;;;;5124323;28;20020;-59
2023/12/09 13:52:43;;;;;;;3.85;1.98;;;;;;;;;;5124342;28;20039;-53
2023/12/09 13:55:10;;;;;;;8.57;2.22;;;;;;;;;;5124160;28;20040;-54
2023/12/09 13:57:37;;;;;;;4.55;2.40;;;;;;;;;;5118649;28;20043;-54
2023/12/09 14:00:07;;;;;;;4.72;2.42;;;;;;;;;;5106490;28;20046;-56
2023/12/09 14:02:34;;;;;;;4.53;2.47;;;;;;;;;;5103491;28;20039;-58
2023/12/09 14:05:01;;;;;;;3.75;1.92;;;;;;;;;;5103665;28;20024;-54
2023/12/09 14:07:29;;;;;;;5.13;2.05;;;;;;;;;;5103745;28;20091;-55
2023/12/09 14:09:56;;;;;;;4.07;2.15;;;;;;;;;;5113881;28;20256;-57
2023/12/09 14:12:22;;;;;;;3.03;2.17;;;;;;;;;;5110488;28;20019;-55
2023/12/09 14:14:49;;;;;;;3.47;2.00;;;;;;;;;;5107464;28;20092;-55
2023/12/09 14:17:16;;;;;;;3.30;1.92;;;;;;;;;;5117449;28;20362;-55
2023/12/09 14:19:43;;;;;;;2.70;2.03;;;;;;;;;;5122182;28;20024;-56
2023/12/09 14:22:09;;;;;;;3.63;1.88;;;;;;;;;;5120008;27;20028;-53
2023/12/09 14:24:36;;;;;;;5.60;2.10;;;;;;;;;;5119608;28;20315;-59
2023/12/09 14:27:03;;;;;;;6.07;2.30;;;;;;;;;;5124303;28;20045;-59
2023/12/09 14:29:31;;;;;;;6.07;2.00;;;;;;;;;;5122601;28;20082;-61
2023/12/09 14:31:58;;;;;;;2.85;2.03;;;;;;;;;;5115996;28;20106;-57
2023/12/09 14:34:25;;;;;;;4.60;2.10;;;;;;;;;;5107133;28;20089;-56
2023/12/09 14:36:53;;;;;;;1.92;1.70;;;;;;;;;;5123034;28;20023;-61
2023/12/09 14:39:19;;;;;;;2.50;1.90;;;;;;;;;;5126993;28;20031;-58